createdAt,value
2023-05-19T00:00:59.288Z,54.98
2023-05-19T00:03:27.894Z,54.91
2023-05-19T00:05:57.235Z,54.95
2023-05-19T00:08:26.832Z,54.88
2023-05-19T00:10:55.363Z,54.94
2023-05-19T00:13:23.503Z,55.10
2023-05-19T00:15:52.044Z,54.91
2023-05-19T00:18:20.663Z,54.85
2023-05-19T00:20:48.818Z,55.09
2023-05-19T00:23:16.750Z,54.98
2023-05-19T00:25:46.173Z,55.04
2023-05-19T00:28:14.230Z,55.22
2023-05-19T00:30:42.800Z,55.08
2023-05-19T00:33:10.998Z,55.12
2023-05-19T00:35:41.047Z,55.11
2023-05-19T00:38:09.046Z,54.77
2023-05-19T00:40:37.052Z,54.82
2023-05-19T00:43:08.397Z,54.64
2023-05-19T00:45:36.721Z,54.74
2023-05-19T00:48:06.273Z,54.79
2023-05-19T00:50:34.916Z,54.83
2023-05-19T00:53:02.962Z,54.88
2023-05-19T00:55:31.486Z,54.91
2023-05-19T00:58:00.252Z,55.20
2023-05-19T01:00:30.019Z,54.96
2023-05-19T01:02:58.324Z,55.11
2023-05-19T01:05:26.295Z,55.06
2023-05-19T01:07:56.461Z,55.01
2023-05-19T01:10:24.547Z,55.03
2023-05-19T01:12:52.561Z,55.16
2023-05-19T01:15:20.833Z,55.10
2023-05-19T01:17:55.606Z,55.08
2023-05-19T01:20:29.135Z,55.11
2023-05-19T01:23:15.094Z,55.03
2023-05-19T01:26:07.036Z,55.08
2023-05-19T01:29:03.084Z,55.14
2023-05-19T01:31:32.508Z,55.12
2023-05-19T01:34:00.721Z,55.02
2023-05-19T01:36:28.719Z,54.92
2023-05-19T01:38:57.911Z,55.15
2023-05-19T01:41:26.026Z,55.13
2023-05-19T01:43:54.298Z,55.10
2023-05-19T01:46:23.211Z,55.24
2023-05-19T01:48:52.528Z,55.30
2023-05-19T01:51:21.013Z,55.19
2023-05-19T01:53:48.961Z,55.43
2023-05-19T01:56:18.176Z,55.51
2023-05-19T01:58:48.171Z,55.57
2023-05-19T02:01:21.318Z,55.55
2023-05-19T02:04:12.860Z,55.53
2023-05-19T02:06:42.930Z,55.40
2023-05-19T02:09:18.854Z,55.53
2023-05-19T02:11:48.416Z,55.44
2023-05-19T02:14:18.941Z,55.38
2023-05-19T02:16:48.809Z,55.52
2023-05-19T02:19:23.750Z,55.47
2023-05-19T02:21:52.263Z,55.51
2023-05-19T02:24:24.974Z,55.44
2023-05-19T02:26:53.155Z,55.32
2023-05-19T02:29:21.094Z,55.42
2023-05-19T02:31:49.183Z,55.44
2023-05-19T02:34:19.021Z,55.42
2023-05-19T02:36:51.659Z,55.28
2023-05-19T02:39:20.089Z,55.30
2023-05-19T02:41:48.365Z,55.29
2023-05-19T02:44:16.367Z,55.58
2023-05-19T02:46:44.595Z,55.49
2023-05-19T02:49:12.736Z,55.51
2023-05-19T02:51:42.112Z,55.83
2023-05-19T02:54:11.747Z,56.04
2023-05-19T02:56:39.827Z,55.63
2023-05-19T02:59:07.836Z,55.56
2023-05-19T03:01:37.674Z,55.50
2023-05-19T03:04:06.212Z,55.73
2023-05-19T03:06:34.325Z,55.52
2023-05-19T03:09:02.499Z,55.66
2023-05-19T03:11:32.274Z,55.44
2023-05-19T03:14:01.575Z,55.47
2023-05-19T03:16:29.606Z,55.39
2023-05-19T03:18:57.834Z,55.38
2023-05-19T03:21:25.918Z,55.33
2023-05-19T03:23:54.678Z,55.42
2023-05-19T03:26:24.625Z,55.59
2023-05-19T03:28:55.486Z,55.46
2023-05-19T03:31:23.714Z,55.59
2023-05-19T03:33:51.778Z,55.55
2023-05-19T03:36:20.231Z,55.49
2023-05-19T03:38:48.162Z,55.44
2023-05-19T03:41:16.349Z,55.24
2023-05-19T03:43:44.888Z,55.81
2023-05-19T03:46:14.278Z,55.93
2023-05-19T03:48:43.535Z,55.98
2023-05-19T03:51:34.915Z,56.04
2023-05-19T03:54:19.349Z,56.04
2023-05-19T03:56:47.492Z,56.17
2023-05-19T03:59:16.237Z,55.98
2023-05-19T04:01:46.546Z,56.01
2023-05-19T04:04:14.981Z,55.81
2023-05-19T04:06:42.934Z,56.13
2023-05-19T04:09:13.104Z,55.82
2023-05-19T04:11:41.404Z,55.82
2023-05-19T04:14:11.650Z,56.22
2023-05-19T04:16:39.599Z,56.05
2023-05-19T04:19:09.101Z,55.62
2023-05-19T04:21:37.108Z,55.63
2023-05-19T04:24:06.680Z,55.69
2023-05-19T04:26:38.390Z,55.75
2023-05-19T04:29:06.766Z,55.69
2023-05-19T04:31:36.032Z,55.70
2023-05-19T04:34:06.029Z,55.88
2023-05-19T04:36:35.574Z,56.04
2023-05-19T04:39:07.408Z,56.01
2023-05-19T04:41:35.846Z,56.16
2023-05-19T04:44:07.553Z,56.11
2023-05-19T04:46:36.230Z,56.04
2023-05-19T04:49:04.319Z,56.01
2023-05-19T04:51:32.317Z,55.88
2023-05-19T04:54:04.029Z,56.07
2023-05-19T04:56:32.107Z,55.90
2023-05-19T04:59:00.223Z,55.99
2023-05-19T05:01:30.948Z,55.97
2023-05-19T05:03:59.277Z,55.87
2023-05-19T05:06:28.751Z,55.90
2023-05-19T05:08:56.920Z,55.62
2023-05-19T05:11:27.968Z,55.60
2023-05-19T05:14:00.593Z,55.67
2023-05-19T05:16:30.983Z,55.54
2023-05-19T05:19:00.674Z,55.70
2023-05-19T05:21:29.422Z,56.05
2023-05-19T05:23:57.834Z,55.79
2023-05-19T05:26:31.011Z,56.01
2023-05-19T05:28:59.322Z,55.71
2023-05-19T05:31:27.590Z,55.85
2023-05-19T05:33:55.695Z,55.82
2023-05-19T05:36:28.008Z,56.10
2023-05-19T05:38:56.154Z,56.16
2023-05-19T05:41:24.680Z,56.03
2023-05-19T05:43:55.567Z,56.22
2023-05-19T05:46:24.430Z,56.38
2023-05-19T05:48:53.027Z,56.48
2023-05-19T05:51:22.646Z,56.52
2023-05-19T05:53:52.858Z,56.57
2023-05-19T05:56:22.597Z,56.60
2023-05-19T05:58:55.000Z,56.56
2023-05-19T06:01:24.102Z,56.97
2023-05-19T06:03:52.686Z,56.89
2023-05-19T06:06:24.467Z,57.01
2023-05-19T06:08:54.338Z,57.05
2023-05-19T06:11:23.085Z,56.96
2023-05-19T06:13:52.078Z,57.05
2023-05-19T06:16:39.885Z,57.18
2023-05-19T06:19:09.852Z,57.17
2023-05-19T06:21:37.884Z,57.20
2023-05-19T06:24:06.443Z,57.30
2023-05-19T06:26:34.436Z,57.30
2023-05-19T06:29:02.528Z,57.49
2023-05-19T06:31:31.427Z,57.56
2023-05-19T06:34:10.374Z,57.71
2023-05-19T06:36:41.348Z,58.08
2023-05-19T06:39:10.002Z,58.33
2023-05-19T06:41:38.441Z,58.59
2023-05-19T06:44:08.700Z,58.75
2023-05-19T06:46:38.136Z,59.22
2023-05-19T06:49:06.489Z,59.10
2023-05-19T06:51:41.382Z,59.26
2023-05-19T06:54:11.096Z,59.47
2023-05-19T06:56:39.208Z,59.14
2023-05-19T06:59:07.439Z,59.07
2023-05-19T07:01:38.110Z,59.09
2023-05-19T07:04:06.431Z,59.32
2023-05-19T07:06:34.976Z,59.32
2023-05-19T07:09:05.483Z,59.26
2023-05-19T07:11:33.916Z,59.41
2023-05-19T07:14:04.126Z,59.07
2023-05-19T07:16:33.449Z,59.18
2023-05-19T07:19:01.594Z,59.14
2023-05-19T07:21:29.741Z,58.88
2023-05-19T07:24:00.136Z,58.74
2023-05-19T07:26:32.067Z,58.76
2023-05-19T07:29:00.287Z,58.99
2023-05-19T07:31:28.638Z,59.15
2023-05-19T07:33:58.060Z,58.91
2023-05-19T07:36:26.247Z,58.78
2023-05-19T07:38:54.387Z,58.71
2023-05-19T07:41:23.036Z,58.60
2023-05-19T07:43:54.906Z,58.74
2023-05-19T07:46:24.772Z,58.59
2023-05-19T07:48:52.770Z,58.69
2023-05-19T07:51:20.833Z,58.68
2023-05-19T07:53:49.211Z,58.68
2023-05-19T07:56:18.042Z,58.41
2023-05-19T07:58:46.526Z,57.79
2023-05-19T08:01:17.442Z,57.61
2023-05-19T08:03:52.042Z,57.47
2023-05-19T08:06:25.462Z,56.74
2023-05-19T08:09:15.301Z,56.76
2023-05-19T08:11:56.711Z,56.55
2023-05-19T08:15:19.197Z,56.32
2023-05-19T08:18:44.827Z,56.03
2023-05-19T08:22:15.441Z,55.93
2023-05-19T08:24:57.749Z,55.79
2023-05-19T08:30:27.532Z,55.36
2023-05-19T08:33:09.795Z,55.12
2023-05-19T08:36:00.557Z,54.69
2023-05-19T08:41:41.152Z,53.07
2023-05-19T08:44:09.302Z,52.44
2023-05-19T08:46:37.814Z,51.46
2023-05-19T08:49:09.519Z,51.18
2023-05-19T08:51:42.661Z,50.72
2023-05-19T08:54:14.058Z,49.75
2023-05-19T08:56:44.631Z,49.88
2023-05-19T08:59:15.484Z,49.00
2023-05-19T09:01:44.218Z,48.56
2023-05-19T09:04:13.626Z,47.95
2023-05-19T09:06:43.322Z,47.70
2023-05-19T09:09:11.454Z,47.68
2023-05-19T09:11:41.083Z,47.67
2023-05-19T09:14:11.859Z,47.25
2023-05-19T09:16:40.647Z,47.10
2023-05-19T09:19:18.495Z,47.17
2023-05-19T09:21:47.150Z,47.32
2023-05-19T09:24:17.045Z,47.34
2023-05-19T09:26:49.202Z,46.69
2023-05-19T09:29:19.817Z,45.69
2023-05-19T09:31:54.432Z,45.82
2023-05-19T09:34:25.167Z,45.75
2023-05-19T09:36:56.700Z,45.22
2023-05-19T09:39:26.457Z,45.13
2023-05-19T09:41:54.970Z,45.35
2023-05-19T09:44:27.958Z,44.97
2023-05-19T09:46:56.570Z,44.69
2023-05-19T09:49:29.650Z,43.99
2023-05-19T09:52:00.071Z,44.38
2023-05-19T09:54:31.194Z,43.97
2023-05-19T09:57:01.118Z,43.45
2023-05-19T09:59:33.691Z,43.01
2023-05-19T10:02:05.660Z,42.59
2023-05-19T10:04:34.363Z,42.42
2023-05-19T10:07:05.730Z,42.65
2023-05-19T10:09:34.215Z,41.74
2023-05-19T10:12:02.415Z,41.09
2023-05-19T10:14:32.064Z,40.84
2023-05-19T10:17:00.848Z,41.03
2023-05-19T10:19:29.707Z,40.31
2023-05-19T10:21:57.930Z,40.33
2023-05-19T10:24:26.374Z,40.37
2023-05-19T10:26:56.574Z,39.92
2023-05-19T10:29:28.201Z,39.78
2023-05-19T10:31:58.071Z,40.13
2023-05-19T10:34:42.096Z,39.70
2023-05-19T10:37:12.920Z,39.12
2023-05-19T10:39:41.296Z,39.30
2023-05-19T10:42:13.792Z,38.17
2023-05-19T10:44:45.701Z,37.76
2023-05-19T10:47:15.638Z,38.19
2023-05-19T10:49:43.745Z,37.69
2023-05-19T10:52:21.548Z,37.35
2023-05-19T10:54:49.750Z,37.47
2023-05-19T10:57:18.006Z,36.48
2023-05-19T10:59:46.016Z,36.85
2023-05-19T11:02:39.944Z,37.75
2023-05-19T11:05:14.501Z,38.07
2023-05-19T11:07:44.348Z,38.83
2023-05-19T11:10:13.171Z,39.68
2023-05-19T11:12:42.047Z,40.49
2023-05-19T11:15:12.756Z,41.13
2023-05-19T11:17:43.207Z,42.38
2023-05-19T11:20:22.838Z,43.43
2023-05-19T11:23:07.348Z,44.77
2023-05-19T11:25:48.524Z,45.91
2023-05-19T11:28:20.335Z,46.13
2023-05-19T11:30:51.876Z,45.80
2023-05-19T11:33:27.275Z,45.11
2023-05-19T11:35:57.981Z,43.79
2023-05-19T11:38:28.327Z,43.58
2023-05-19T11:40:57.040Z,43.83
2023-05-19T11:43:25.478Z,43.31
2023-05-19T11:45:54.357Z,42.79
2023-05-19T11:48:24.097Z,42.52
2023-05-19T11:50:52.542Z,43.17
2023-05-19T11:53:21.177Z,42.95
2023-05-19T11:55:50.059Z,43.07
2023-05-19T11:58:18.561Z,42.92
2023-05-19T12:00:47.731Z,42.54
2023-05-19T12:03:17.622Z,43.37
2023-05-19T12:05:50.021Z,43.49
2023-05-19T12:08:18.784Z,43.57
2023-05-19T12:10:50.902Z,43.77
2023-05-19T12:13:19.023Z,44.07
2023-05-19T12:15:47.271Z,44.72
2023-05-19T12:18:15.357Z,45.02
2023-05-19T12:20:43.905Z,45.16
2023-05-19T12:23:15.474Z,45.60
2023-05-19T12:25:53.223Z,45.96
2023-05-19T12:28:21.875Z,46.56
2023-05-19T12:30:52.177Z,46.46
2023-05-19T12:33:20.684Z,46.55
2023-05-19T12:35:51.175Z,46.20
2023-05-19T12:38:20.640Z,46.34
2023-05-19T12:40:52.196Z,46.81
2023-05-19T12:43:22.448Z,46.55
2023-05-19T12:45:51.055Z,46.69
2023-05-19T12:48:20.105Z,46.11
2023-05-19T12:50:48.643Z,46.04
2023-05-19T12:53:16.925Z,46.22
2023-05-19T12:55:48.725Z,46.29
2023-05-19T12:58:17.456Z,46.31
2023-05-19T13:00:47.447Z,46.30
2023-05-19T13:03:17.299Z,46.03
2023-05-19T13:05:46.622Z,46.05
2023-05-19T13:08:15.493Z,45.71
2023-05-19T13:10:44.784Z,45.89
2023-05-19T13:13:14.622Z,45.26
2023-05-19T13:15:43.809Z,45.21
2023-05-19T13:18:14.613Z,44.81
2023-05-19T13:20:43.441Z,44.57
2023-05-19T13:23:14.560Z,44.75
2023-05-19T13:25:42.984Z,44.82
2023-05-19T13:28:11.164Z,44.85
2023-05-19T13:30:46.562Z,45.13
2023-05-19T13:33:19.739Z,45.04
2023-05-19T13:35:49.266Z,45.09
2023-05-19T13:38:17.395Z,44.58
2023-05-19T13:40:45.947Z,44.65
2023-05-19T13:43:13.987Z,44.47
2023-05-19T13:45:52.799Z,43.76
2023-05-19T13:48:22.500Z,44.19
2023-05-19T13:50:52.581Z,44.30
2023-05-19T13:53:20.822Z,43.82
2023-05-19T13:55:49.241Z,44.19
2023-05-19T13:58:19.099Z,44.38
2023-05-19T14:00:47.085Z,44.82
2023-05-19T14:03:16.356Z,44.46
2023-05-19T14:05:47.192Z,44.17
2023-05-19T14:08:15.245Z,43.93
2023-05-19T14:10:43.396Z,43.91
2023-05-19T14:13:31.363Z,43.51
2023-05-19T14:16:01.069Z,43.48
2023-05-19T14:18:29.050Z,43.68
2023-05-19T14:20:58.543Z,43.04
2023-05-19T14:23:27.914Z,42.64
2023-05-19T14:25:56.114Z,42.85
2023-05-19T14:28:24.315Z,42.41
2023-05-19T14:30:52.448Z,41.21
2023-05-19T14:33:21.969Z,40.99
2023-05-19T14:35:50.224Z,40.50
2023-05-19T14:38:19.627Z,40.36
2023-05-19T14:40:48.546Z,40.79
2023-05-19T14:43:16.540Z,40.60
2023-05-19T14:45:45.336Z,40.66
2023-05-19T14:48:13.357Z,40.48
2023-05-19T14:50:42.678Z,40.33
2023-05-19T14:53:13.058Z,39.82
2023-05-19T14:55:42.438Z,39.64
2023-05-19T14:58:26.921Z,38.76
2023-05-19T15:00:58.908Z,39.04
2023-05-19T15:03:26.993Z,38.15
2023-05-19T15:05:55.101Z,37.86
2023-05-19T15:08:23.509Z,38.26
2023-05-19T15:10:52.861Z,37.77
2023-05-19T15:13:21.590Z,37.96
2023-05-19T15:15:49.675Z,38.57
2023-05-19T15:18:18.821Z,38.74
2023-05-19T15:20:47.018Z,39.08
2023-05-19T15:23:15.118Z,39.71
2023-05-19T15:25:43.104Z,39.80
2023-05-19T15:28:13.875Z,40.21
2023-05-19T15:30:43.303Z,40.73
2023-05-19T15:33:11.838Z,41.09
2023-05-19T15:35:40.230Z,41.84
2023-05-19T15:38:08.519Z,41.84
2023-05-19T15:40:36.942Z,42.32
2023-05-19T15:43:05.210Z,42.11
2023-05-19T15:45:35.496Z,42.27
2023-05-19T15:48:04.178Z,42.84
2023-05-19T15:50:33.065Z,42.44
2023-05-19T15:53:01.540Z,42.47
2023-05-19T15:55:32.139Z,41.53
2023-05-19T15:58:00.660Z,41.08
2023-05-19T16:00:29.042Z,40.36
2023-05-19T16:02:59.078Z,39.30
2023-05-19T16:05:28.848Z,39.18
2023-05-19T16:07:57.417Z,39.03
2023-05-19T16:10:26.272Z,38.13
2023-05-19T16:12:54.474Z,38.76
2023-05-19T16:15:22.514Z,38.47
2023-05-19T16:17:50.508Z,37.86
2023-05-19T16:20:21.401Z,38.13
2023-05-19T16:22:49.674Z,37.99
2023-05-19T16:25:17.922Z,37.68
2023-05-19T16:27:46.455Z,37.47
2023-05-19T16:30:14.855Z,37.30
2023-05-19T16:32:43.074Z,37.49
2023-05-19T16:35:11.386Z,37.81
2023-05-19T16:37:40.763Z,38.28
2023-05-19T16:40:09.723Z,38.18
2023-05-19T16:42:37.890Z,38.47
2023-05-19T16:45:07.050Z,38.61
2023-05-19T16:47:35.409Z,39.22
2023-05-19T16:50:03.620Z,39.34
2023-05-19T16:52:31.617Z,39.24
2023-05-19T16:55:01.062Z,39.15
2023-05-19T16:57:29.000Z,39.09
2023-05-19T16:59:56.964Z,39.49
2023-05-19T17:02:24.969Z,39.71
2023-05-19T17:04:53.406Z,39.89
2023-05-19T17:07:21.859Z,39.67
2023-05-19T17:09:50.250Z,39.61
2023-05-19T17:12:19.645Z,39.39
2023-05-19T17:14:47.764Z,39.25
2023-05-19T17:17:15.823Z,39.12
2023-05-19T17:19:43.885Z,38.98
2023-05-19T17:22:11.893Z,39.81
2023-05-19T17:24:39.926Z,40.16
2023-05-19T17:27:07.927Z,40.40
2023-05-19T17:29:37.410Z,40.21
2023-05-19T17:32:06.050Z,40.31
2023-05-19T17:34:34.057Z,40.41
2023-05-19T17:37:02.049Z,40.47
2023-05-19T17:39:30.192Z,40.58
2023-05-19T17:41:58.137Z,40.55
2023-05-19T17:44:26.473Z,40.84
2023-05-19T17:46:55.876Z,40.75
2023-05-19T17:49:25.730Z,41.13
2023-05-19T17:51:54.547Z,41.13
2023-05-19T17:54:23.539Z,40.83
2023-05-19T17:56:52.176Z,40.95
2023-05-19T17:59:21.273Z,40.89
2023-05-19T18:01:49.704Z,41.10
2023-05-19T18:04:19.818Z,41.04
2023-05-19T18:06:47.918Z,40.86
2023-05-19T18:09:15.963Z,41.02
2023-05-19T18:11:44.019Z,41.38
2023-05-19T18:14:12.007Z,41.77
2023-05-19T18:16:40.053Z,41.21
2023-05-19T18:19:08.231Z,41.30
2023-05-19T18:21:38.071Z,41.31
2023-05-19T18:24:07.129Z,41.42
2023-05-19T18:26:37.746Z,41.73
2023-05-19T18:29:05.907Z,41.77
2023-05-19T18:31:33.891Z,42.30
2023-05-19T18:34:02.032Z,42.43
2023-05-19T18:36:30.026Z,43.04
2023-05-19T18:39:00.152Z,43.05
2023-05-19T18:41:28.209Z,43.76
2023-05-19T18:43:56.171Z,43.92
2023-05-19T18:46:24.490Z,44.30
2023-05-19T18:48:52.986Z,44.47
2023-05-19T18:51:21.827Z,44.39
2023-05-19T18:53:50.674Z,44.99
2023-05-19T18:56:25.376Z,44.47
2023-05-19T18:58:53.517Z,44.66
2023-05-19T19:01:21.478Z,44.63
2023-05-19T19:03:49.732Z,44.60
2023-05-19T19:06:18.111Z,44.74
2023-05-19T19:08:46.298Z,44.73
2023-05-19T19:11:14.269Z,45.03
2023-05-19T19:13:43.879Z,45.09
2023-05-19T19:16:12.166Z,45.31
2023-05-19T19:18:40.294Z,45.26
2023-05-19T19:21:08.415Z,45.50
2023-05-19T19:23:36.408Z,45.73
2023-05-19T19:26:04.466Z,45.96
2023-05-19T19:28:32.529Z,45.85
2023-05-19T19:31:02.175Z,45.84
2023-05-19T19:33:30.231Z,46.03
2023-05-19T19:35:58.297Z,46.06
2023-05-19T19:38:26.537Z,46.07
2023-05-19T19:40:54.523Z,46.20
2023-05-19T19:43:22.492Z,46.33
2023-05-19T19:45:51.157Z,46.38
2023-05-19T19:48:20.795Z,46.49
2023-05-19T19:50:52.892Z,46.53
2023-05-19T19:53:20.902Z,46.69
2023-05-19T19:55:57.048Z,46.93
2023-05-19T19:58:25.108Z,46.97
2023-05-19T20:00:57.136Z,47.61
2023-05-19T20:03:26.877Z,47.58
2023-05-19T20:05:55.740Z,47.60
2023-05-19T20:08:23.852Z,47.97
2023-05-19T20:10:52.268Z,48.22
2023-05-19T20:13:20.292Z,48.24
2023-05-19T20:15:48.428Z,48.33
2023-05-19T20:18:16.405Z,48.28
2023-05-19T20:20:45.981Z,48.32
2023-05-19T20:23:16.237Z,48.54
2023-05-19T20:26:02.393Z,48.38
2023-05-19T20:28:32.411Z,48.45
2023-05-19T20:31:00.445Z,48.54
2023-05-19T20:33:28.540Z,48.56
2023-05-19T20:35:57.861Z,48.64
2023-05-19T20:38:26.017Z,48.62
2023-05-19T20:40:54.839Z,48.76
2023-05-19T20:43:22.927Z,48.78
2023-05-19T20:45:51.362Z,49.01
2023-05-19T20:48:19.498Z,49.04
2023-05-19T20:50:47.654Z,49.00
2023-05-19T20:53:17.032Z,49.01
2023-05-19T20:55:45.493Z,49.08
2023-05-19T20:58:13.456Z,49.29
2023-05-19T21:00:41.660Z,49.36
2023-05-19T21:03:09.862Z,49.25
2023-05-19T21:05:37.909Z,49.48
2023-05-19T21:08:06.312Z,49.70
2023-05-19T21:10:35.762Z,49.53
2023-05-19T21:13:04.366Z,49.83
2023-05-19T21:15:32.797Z,49.92
2023-05-19T21:18:00.997Z,49.95
2023-05-19T21:20:29.249Z,50.05
2023-05-19T21:22:57.697Z,50.01
2023-05-19T21:25:25.890Z,49.99
2023-05-19T21:27:56.090Z,50.10
2023-05-19T21:30:24.134Z,49.99
2023-05-19T21:32:52.192Z,49.81
2023-05-19T21:35:20.330Z,49.98
2023-05-19T21:37:48.302Z,49.74
2023-05-19T21:40:16.458Z,49.68
2023-05-19T21:42:44.407Z,49.75
2023-05-19T21:45:13.871Z,49.70
2023-05-19T21:47:41.861Z,49.83
2023-05-19T21:50:11.394Z,49.68
2023-05-19T21:52:39.421Z,49.69
2023-05-19T21:55:09.051Z,49.40
2023-05-19T21:57:37.056Z,49.21
2023-05-19T22:00:06.496Z,49.20
2023-05-19T22:02:41.231Z,49.14
2023-05-19T22:05:10.068Z,49.12
2023-05-19T22:07:38.008Z,48.99
2023-05-19T22:10:06.868Z,49.04
2023-05-19T22:12:34.845Z,49.31
2023-05-19T22:15:03.582Z,49.20
2023-05-19T22:17:31.781Z,49.14
2023-05-19T22:20:01.206Z,49.10
2023-05-19T22:22:29.203Z,49.09
2023-05-19T22:24:57.163Z,49.20
2023-05-19T22:27:25.262Z,49.23
2023-05-19T22:29:53.502Z,49.33
2023-05-19T22:32:21.446Z,49.27
2023-05-19T22:34:49.683Z,49.22
2023-05-19T22:37:19.087Z,49.20
2023-05-19T22:39:47.075Z,49.05
2023-05-19T22:42:15.358Z,49.07
2023-05-19T22:44:44.374Z,49.25
2023-05-19T22:47:13.930Z,48.89
2023-05-19T22:49:42.311Z,48.91
2023-05-19T22:52:10.836Z,49.02
2023-05-19T22:54:40.302Z,48.93
2023-05-19T22:57:08.372Z,48.82
2023-05-19T22:59:38.259Z,48.95
2023-05-19T23:02:06.394Z,48.90
2023-05-19T23:04:34.430Z,49.07
2023-05-19T23:07:02.601Z,49.03
2023-05-19T23:09:30.631Z,49.07
2023-05-19T23:11:59.978Z,49.30
2023-05-19T23:14:28.168Z,49.32
2023-05-19T23:16:56.231Z,49.23
2023-05-19T23:19:24.431Z,49.34
2023-05-19T23:21:52.513Z,49.36
2023-05-19T23:24:20.605Z,49.38
2023-05-19T23:26:48.541Z,49.42
2023-05-19T23:29:17.902Z,49.42
2023-05-19T23:31:45.962Z,49.58
2023-05-19T23:34:14.091Z,49.45
2023-05-19T23:36:42.110Z,49.65
2023-05-19T23:39:10.232Z,49.59
2023-05-19T23:41:38.290Z,49.71
2023-05-19T23:44:06.625Z,49.73
2023-05-19T23:46:36.017Z,49.75
2023-05-19T23:49:04.220Z,49.72
2023-05-19T23:51:32.405Z,49.70
2023-05-19T23:54:00.456Z,49.62
2023-05-19T23:56:28.464Z,49.53
2023-05-19T23:58:56.716Z,49.68
